Time;durP1;ratioP1;P1;durP2;ratioP2;P2;SDS_P1;SDS_P2;PMS_P1;PMS_P2;Temp;Humidity;BMP_temperature;BMP_pressure;BME280_temperature;BME280_humidity;BME280_pressure;Samples;Min_cycle;Max_cycle;Signal;HPM_P1;HPM_P2
2022/08/21 00:00:20;;;;;;;2.53;1.60;;;;;;;27.60;33.54;96749.31;5006860;28;20113;-27
2022/08/21 00:03:05;;;;;;;4.53;1.50;;;;;;;27.60;33.57;96759.84;5005783;28;20030;-26
2022/08/21 00:05:31;;;;;;;2.88;1.58;;;;;;;27.59;33.44;96759.00;5007369;28;20061;-27
2022/08/21 00:07:56;;;;;;;2.53;1.67;;;;;;;27.59;33.58;96753.75;5006564;28;20140;-27
2022/08/21 00:10:22;;;;;;;3.50;1.63;;;;;;;27.59;33.47;96748.47;5002987;28;20041;-28
2022/08/21 00:12:48;;;;;;;3.60;1.45;;;;;;;27.57;33.61;96745.06;5008165;28;20509;-27
2022/08/21 00:15:16;;;;;;;3.08;1.63;;;;;;;27.58;33.69;96745.94;5007706;28;20932;-30
2022/08/21 00:17:41;;;;;;;5.18;1.67;;;;;;;27.58;33.68;96740.66;5000357;28;20152;-27
2022/08/21 00:20:08;;;;;;;3.67;1.63;;;;;;;27.57;33.60;96734.53;5004054;28;20037;-25
2022/08/21 00:22:34;;;;;;;4.22;1.70;;;;;;;27.58;33.80;96741.50;5005008;28;20032;-25
2022/08/21 00:25:00;;;;;;;3.35;1.50;;;;;;;27.57;33.53;96738.97;5008708;28;20033;-26
2022/08/21 00:27:25;;;;;;;4.82;1.55;;;;;;;27.56;33.85;96738.13;5003577;28;20033;-25
2022/08/21 00:29:51;;;;;;;3.15;1.70;;;;;;;27.57;33.61;96737.19;5009719;28;20507;-25
2022/08/21 00:32:24;;;;;;;1.70;1.40;;;;;;;27.56;33.70;96746.03;5004292;28;20116;-25
2022/08/21 00:34:50;;;;;;;3.40;1.50;;;;;;;27.56;33.88;96732.00;5003422;28;20112;-26
2022/08/21 00:37:15;;;;;;;4.30;1.50;;;;;;;27.55;33.83;96728.53;5004586;28;20507;-25
2022/08/21 00:39:41;;;;;;;6.60;1.70;;;;;;;27.55;33.93;96733.81;5011100;28;20056;-28
2022/08/21 00:42:06;;;;;;;2.85;1.35;;;;;;;27.55;33.88;96738.22;5002295;28;20091;-26
2022/08/21 00:44:32;;;;;;;5.05;1.70;;;;;;;27.54;33.64;96740.03;5008247;28;20029;-27
2022/08/21 00:46:57;;;;;;;3.13;1.50;;;;;;;27.55;33.75;96741.69;5014111;28;20029;-26
2022/08/21 00:49:23;;;;;;;2.85;1.65;;;;;;;27.54;33.68;96737.38;5008633;28;20040;-28
2022/08/21 00:51:56;;;;;;;2.33;1.42;;;;;;;27.54;33.73;96732.13;5010324;28;20041;-27
2022/08/21 00:54:24;;;;;;;2.58;1.60;;;;;;;27.53;33.80;96730.41;5007047;28;20024;-25
2022/08/21 00:56:54;;;;;;;2.53;1.42;;;;;;;27.53;33.85;96733.03;5008401;28;20026;-25
2022/08/21 00:59:20;;;;;;;2.97;1.60;;;;;;;27.53;33.80;96725.16;4992147;28;20482;-26
2022/08/21 01:01:45;;;;;;;7.10;1.52;;;;;;;27.53;33.75;96733.91;5006013;28;20818;-25
2022/08/21 01:04:11;;;;;;;4.35;1.45;;;;;;;27.52;33.76;96726.09;5008703;28;20067;-27
2022/08/21 01:06:36;;;;;;;3.88;1.55;;;;;;;27.52;33.93;96726.94;5006242;28;20030;-26
2022/08/21 01:09:02;;;;;;;2.40;1.50;;;;;;;27.52;33.75;96726.09;5008468;28;20026;-25
2022/08/21 01:11:28;;;;;;;2.35;1.60;;;;;;;27.51;33.81;96727.88;5008262;28;20060;-25
2022/08/21 01:13:53;;;;;;;3.60;1.50;;;;;;;27.51;33.78;96724.41;5008603;28;20037;-26
2022/08/21 01:16:19;;;;;;;5.93;1.50;;;;;;;27.52;33.72;96731.34;5010457;28;20042;-27
2022/08/21 01:18:45;;;;;;;2.97;1.50;;;;;;;27.51;33.76;96729.66;5012474;28;20033;-25
2022/08/21 01:21:12;;;;;;;3.03;1.33;;;;;;;27.51;33.88;96725.22;5010543;28;20029;-25
2022/08/21 01:23:42;;;;;;;2.53;1.60;;;;;;;27.51;33.67;96727.88;5008643;28;20029;-27
2022/08/21 01:26:07;;;;;;;2.17;1.20;;;;;;;27.49;33.90;96716.59;5011020;28;20029;-25
2022/08/21 01:28:37;;;;;;;2.22;1.30;;;;;;;27.49;33.73;96721.88;5013025;28;20045;-25
2022/08/21 01:31:02;;;;;;;2.38;1.40;;;;;;;27.49;33.91;96727.13;4994863;28;20044;-27
2022/08/21 01:33:28;;;;;;;2.40;1.50;;;;;;;27.49;33.90;96723.63;5009500;28;20030;-25
2022/08/21 01:35:53;;;;;;;2.53;1.55;;;;;;;27.49;34.07;96723.63;5010844;28;20120;-25
2022/08/21 01:38:19;;;;;;;2.92;1.35;;;;;;;27.49;34.01;96721.88;5011970;28;21302;-27
2022/08/21 01:40:45;;;;;;;3.03;1.52;;;;;;;27.48;33.79;96714.91;5010024;28;20025;-29
2022/08/21 01:43:11;;;;;;;2.88;1.52;;;;;;;27.48;33.87;96714.06;5009025;28;20034;-26
2022/08/21 01:45:36;;;;;;;4.82;1.83;;;;;;;27.47;34.07;96713.22;5011999;28;20033;-28
2022/08/21 01:48:02;;;;;;;2.60;1.50;;;;;;;27.47;33.89;96712.38;5005749;28;20065;-26
2022/08/21 01:50:27;;;;;;;2.55;1.40;;;;;;;27.47;33.86;96707.09;5003361;28;20122;-25
2022/08/21 01:52:53;;;;;;;2.78;1.38;;;;;;;27.47;33.85;96712.38;5008876;28;20116;-27
2022/08/21 01:55:19;;;;;;;2.88;1.38;;;;;;;27.46;33.83;96708.06;5007711;28;20804;-26
2022/08/21 01:57:44;;;;;;;3.05;1.58;;;;;;;27.46;33.70;96708.06;5009055;28;20038;-25
2022/08/21 02:00:11;;;;;;;3.78;1.50;;;;;;;27.46;34.01;96715.94;5010341;28;20586;-26
2022/08/21 02:02:36;;;;;;;2.08;1.50;;;;;;;27.45;33.68;96708.97;5010468;28;20460;-25
2022/08/21 02:05:03;;;;;;;2.83;1.42;;;;;;;27.45;33.96;96708.97;5010427;28;20065;-25
2022/08/21 02:07:38;;;;;;;3.08;1.30;;;;;;;27.43;33.84;96701.19;5012485;28;20069;-28
2022/08/21 02:10:05;;;;;;;3.50;1.30;;;;;;;27.44;33.96;96709.91;5008882;28;20043;-26
2022/08/21 02:12:30;;;;;;;2.97;1.33;;;;;;;27.43;33.99;96695.06;5005483;28;20022;-26
2022/08/21 02:14:55;;;;;;;2.95;1.60;;;;;;;27.43;33.94;96700.34;5006295;28;20064;-26
2022/08/21 02:17:21;;;;;;;2.42;1.30;;;;;;;27.43;34.04;96695.94;5007473;28;20033;-26
2022/08/21 02:19:46;;;;;;;2.05;1.40;;;;;;;27.41;33.86;96692.53;5007725;28;20044;-26
2022/08/21 02:22:12;;;;;;;1.70;1.30;;;;;;;27.41;33.83;96699.59;5010368;28;20044;-26
2022/08/21 02:24:38;;;;;;;2.53;1.52;;;;;;;27.41;33.82;96691.72;5011815;28;20029;-26
2022/08/21 02:27:03;;;;;;;2.42;1.50;;;;;;;27.42;33.93;96693.41;5010374;28;22446;-27
2022/08/21 02:29:29;;;;;;;3.45;1.52;;;;;;;27.41;34.06;96695.16;5009195;28;20480;-26
2022/08/21 02:31:54;;;;;;;3.28;1.50;;;;;;;27.41;33.76;96694.34;5010801;28;20301;-26
2022/08/21 02:34:19;;;;;;;2.08;1.25;;;;;;;27.39;33.87;96690.00;5007491;28;20512;-26
2022/08/21 02:36:45;;;;;;;3.40;1.38;;;;;;;27.39;33.83;96683.91;5011484;28;20072;-28
2022/08/21 02:39:10;;;;;;;2.78;1.67;;;;;;;27.40;33.88;96693.47;5003703;28;20079;-25
2022/08/21 02:41:35;;;;;;;2.15;1.30;;;;;;;27.38;33.99;96693.56;5005531;28;20041;-25
2022/08/21 02:44:01;;;;;;;2.47;1.20;;;;;;;27.37;33.96;96678.72;5004648;28;20041;-27
2022/08/21 02:46:26;;;;;;;3.65;1.30;;;;;;;27.39;33.94;96678.63;5006857;28;20036;-25
2022/08/21 02:48:52;;;;;;;4.55;1.60;;;;;;;27.38;33.86;96683.03;5009099;28;20029;-26
2022/08/21 02:51:18;;;;;;;2.97;1.42;;;;;;;27.37;33.96;96684.00;5003978;28;20025;-25
2022/08/21 02:53:44;;;;;;;3.08;1.30;;;;;;;27.37;33.97;96677.88;5008357;28;20391;-25
2022/08/21 02:56:11;;;;;;;2.38;1.38;;;;;;;27.36;33.88;96674.41;5002190;28;20034;-26
2022/08/21 02:58:41;;;;;;;2.25;1.50;;;;;;;27.36;34.06;96679.69;5007144;28;20459;-26
2022/08/21 03:01:09;;;;;;;3.60;1.77;;;;;;;27.35;33.90;96688.50;5005162;28;20041;-26
2022/08/21 03:03:36;;;;;;;6.15;1.50;;;;;;;27.36;34.01;96681.44;5005281;28;20036;-25
2022/08/21 03:06:02;;;;;;;1.98;1.48;;;;;;;27.34;33.87;96684.16;5004977;28;20025;-26
2022/08/21 03:08:27;;;;;;;3.08;1.50;;;;;;;27.34;34.11;96684.16;5006912;28;20083;-25
2022/08/21 03:10:53;;;;;;;2.55;1.52;;;;;;;27.34;34.01;96684.16;5008610;28;20030;-25
2022/08/21 03:13:20;;;;;;;2.30;1.40;;;;;;;27.33;34.06;96682.50;5002831;28;20161;-28
2022/08/21 03:15:45;;;;;;;2.63;1.42;;;;;;;27.33;34.04;96685.13;5003905;28;20678;-25
2022/08/21 03:18:11;;;;;;;3.13;1.70;;;;;;;27.35;33.88;96687.66;5003944;28;20120;-26
2022/08/21 03:20:37;;;;;;;2.40;1.60;;;;;;;27.33;33.71;96685.13;5004011;28;20022;-26
2022/08/21 03:23:03;;;;;;;3.50;1.40;;;;;;;27.33;33.90;96684.25;5006157;28;20048;-26
2022/08/21 03:25:28;;;;;;;3.40;1.50;;;;;;;27.34;33.80;96689.44;5008348;28;20033;-26
2022/08/21 03:27:54;;;;;;;1.90;1.38;;;;;;;27.33;33.84;96687.75;5009613;28;20140;-26
2022/08/21 03:30:20;;;;;;;2.47;1.45;;;;;;;27.34;33.80;96688.59;5007636;28;21634;-26
2022/08/21 03:32:46;;;;;;;2.30;1.23;;;;;;;27.32;33.64;96688.69;5008861;28;20463;-26
2022/08/21 03:35:12;;;;;;;2.28;1.42;;;;;;;27.33;33.87;96686.91;5004856;28;20030;-26
2022/08/21 03:37:37;;;;;;;1.70;1.25;;;;;;;27.32;33.90;96686.06;5010784;28;20045;-26
2022/08/21 03:40:04;;;;;;;2.00;1.40;;;;;;;27.30;33.98;96685.28;5007734;28;20445;-25
2022/08/21 03:42:30;;;;;;;3.20;1.67;;;;;;;27.32;33.90;96699.22;5007817;28;20072;-26
2022/08/21 03:44:55;;;;;;;3.03;1.77;;;;;;;27.30;33.82;96695.00;5008545;28;20551;-25
2022/08/21 03:47:21;;;;;;;2.60;1.30;;;;;;;27.30;33.79;96690.56;5007884;28;20548;-26
2022/08/21 03:49:47;;;;;;;2.92;1.63;;;;;;;27.30;33.87;96695.81;5008462;28;20115;-27
2022/08/21 03:52:12;;;;;;;2.20;1.40;;;;;;;27.30;33.84;96685.28;5010534;28;20496;-26
2022/08/21 03:54:40;;;;;;;3.08;1.70;;;;;;;27.28;33.98;96684.56;5005227;28;20064;-25
2022/08/21 03:57:05;;;;;;;2.15;1.55;;;;;;;27.28;33.82;96692.44;5010030;28;20108;-26
2022/08/21 03:59:30;;;;;;;2.25;1.45;;;;;;;27.29;33.92;96691.50;5007185;28;20037;-26
2022/08/21 04:01:58;;;;;;;1.55;1.20;;;;;;;27.29;33.84;96690.66;5008894;28;20018;-27
2022/08/21 04:04:23;;;;;;;2.20;1.38;;;;;;;27.28;33.78;96692.44;5009494;28;20025;-26
2022/08/21 04:06:49;;;;;;;1.55;1.27;;;;;;;27.28;33.89;96697.72;5006907;28;20060;-25
2022/08/21 04:09:15;;;;;;;2.33;1.45;;;;;;;27.27;33.88;96701.28;5006860;28;20071;-27
2022/08/21 04:11:41;;;;;;;2.88;1.63;;;;;;;27.26;33.80;96700.44;5007924;28;20045;-26
2022/08/21 04:14:07;;;;;;;3.25;1.40;;;;;;;27.25;33.93;96701.38;5002520;28;20029;-26
2022/08/21 04:16:32;;;;;;;1.88;1.38;;;;;;;27.26;33.81;96707.47;5007134;28;20040;-26
2022/08/21 04:18:57;;;;;;;2.30;1.30;;;;;;;27.26;33.96;96712.72;5008993;28;20025;-26
2022/08/21 04:21:23;;;;;;;1.77;1.20;;;;;;;27.26;33.93;96708.31;5007987;28;20056;-28
2022/08/21 04:23:48;;;;;;;2.63;1.40;;;;;;;27.26;34.04;96718.00;5008064;28;20129;-29
2022/08/21 04:26:14;;;;;;;2.20;1.60;;;;;;;27.24;33.92;96715.44;5007952;28;20529;-25
2022/08/21 04:28:39;;;;;;;2.90;1.50;;;;;;;27.25;33.80;96716.31;5012283;28;20052;-26
2022/08/21 04:31:05;;;;;;;2.03;1.40;;;;;;;27.25;33.79;96718.94;5006694;28;20037;-25
2022/08/21 04:33:30;;;;;;;1.75;1.35;;;;;;;27.24;33.77;96722.53;5006285;28;20060;-26
2022/08/21 04:35:55;;;;;;;1.92;1.25;;;;;;;27.23;34.07;96720.84;5005210;28;20037;-27
2022/08/21 04:38:21;;;;;;;1.80;1.40;;;;;;;27.24;33.82;96733.03;5004338;28;20037;-34
2022/08/21 04:40:48;;;;;;;2.40;1.48;;;;;;;27.23;33.85;96731.34;5010229;28;20037;-25
2022/08/21 04:43:13;;;;;;;2.45;1.20;;;;;;;27.24;33.91;96731.22;5005077;28;20029;-26
2022/08/21 04:45:41;;;;;;;2.60;1.60;;;;;;;27.23;33.93;96731.34;5011363;28;20478;-25
2022/08/21 04:48:07;;;;;;;4.70;1.38;;;;;;;27.22;33.93;96732.28;5008975;28;20033;-25
2022/08/21 04:50:47;;;;;;;2.05;1.35;;;;;;;27.23;33.95;96732.19;5007585;28;20110;-26
2022/08/21 04:53:36;;;;;;;5.38;1.60;;;;;;;27.22;33.86;96732.28;5005774;28;20571;-26
2022/08/21 04:56:08;;;;;;;3.10;1.58;;;;;;;27.21;33.62;96735.84;5008255;28;20036;-26
2022/08/21 04:58:34;;;;;;;3.42;1.58;;;;;;;27.20;33.99;96732.38;5007906;28;20112;-26
2022/08/21 05:00:59;;;;;;;1.63;1.35;;;;;;;27.20;33.85;96734.16;5004946;28;20541;-25
2022/08/21 05:03:25;;;;;;;3.67;1.25;;;;;;;27.20;33.79;96737.66;5007791;28;20026;-25
2022/08/21 05:05:50;;;;;;;2.65;1.40;;;;;;;27.20;33.83;96736.78;5004151;28;20032;-26
2022/08/21 05:08:17;;;;;;;2.38;1.33;;;;;;;27.17;33.96;96737.81;5006851;28;20412;-26
2022/08/21 05:10:44;;;;;;;1.98;1.30;;;;;;;27.18;33.84;96739.50;4988714;28;20064;-26
2022/08/21 05:13:10;;;;;;;1.95;1.33;;;;;;;27.19;33.80;96745.63;5008408;28;20026;-25
2022/08/21 05:15:37;;;;;;;2.03;1.40;;;;;;;27.18;33.77;96749.16;5005553;28;20068;-27
2022/08/21 05:18:03;;;;;;;2.45;1.20;;;;;;;27.18;33.92;96739.50;5002561;28;20603;-26
2022/08/21 05:20:28;;;;;;;2.90;1.23;;;;;;;27.18;33.89;96749.16;5010047;28;20113;-26
2022/08/21 05:22:54;;;;;;;3.17;1.50;;;;;;;27.17;33.72;96748.34;5009886;28;20030;-26
2022/08/21 05:25:20;;;;;;;2.35;1.42;;;;;;;27.18;33.92;96743.91;5005815;28;20037;-26
2022/08/21 05:27:45;;;;;;;4.47;1.70;;;;;;;27.17;34.00;96755.38;5007180;28;20121;-26
2022/08/21 05:30:11;;;;;;;3.22;1.52;;;;;;;27.18;33.98;96746.53;5007920;28;20428;-27
2022/08/21 05:32:36;;;;;;;1.83;1.40;;;;;;;27.17;33.86;96750.13;5015319;28;20030;-27
2022/08/21 05:35:06;;;;;;;3.17;1.40;;;;;;;27.18;33.86;96759.69;5009126;28;20049;-26
2022/08/21 05:37:31;;;;;;;2.28;1.30;;;;;;;27.18;33.86;96757.06;5010714;28;20077;-25
2022/08/21 05:39:57;;;;;;;2.13;1.30;;;;;;;27.17;34.05;96758.88;5006338;28;20471;-26
2022/08/21 05:42:23;;;;;;;4.90;1.67;;;;;;;27.18;33.91;96764.97;5011699;28;20056;-26
2022/08/21 05:44:48;;;;;;;6.22;1.65;;;;;;;27.18;33.98;96759.69;5011666;28;20553;-25
2022/08/21 05:47:14;;;;;;;3.20;1.40;;;;;;;27.17;34.07;96764.13;5013573;28;20427;-26
2022/08/21 05:49:40;;;;;;;3.08;1.48;;;;;;;27.18;33.91;96763.19;5012841;28;20045;-26
2022/08/21 05:52:05;;;;;;;2.35;1.58;;;;;;;27.18;33.99;96764.97;5010226;28;20092;-27
2022/08/21 05:54:30;;;;;;;2.75;1.55;;;;;;;27.18;34.10;96759.69;5008545;28;20032;-25
2022/08/21 05:56:56;;;;;;;4.57;1.52;;;;;;;27.19;34.01;96756.16;5009196;28;20036;-26
2022/08/21 05:59:21;;;;;;;3.10;1.60;;;;;;;27.19;34.23;96764.03;5013293;28;20060;-25
2022/08/21 06:01:47;;;;;;;2.60;1.30;;;;;;;27.20;34.17;96763.97;5012220;28;20534;-26
2022/08/21 06:04:13;;;;;;;4.18;1.38;;;;;;;27.21;34.15;96770.03;5006020;28;20384;-25
2022/08/21 06:06:38;;;;;;;2.33;1.30;;;;;;;27.22;34.11;96771.72;5011140;28;20882;-25
2022/08/21 06:09:04;;;;;;;3.65;1.70;;;;;;;27.23;34.20;96758.50;5009339;28;20049;-26
2022/08/21 06:11:30;;;;;;;3.90;1.70;;;;;;;27.23;34.26;96762.91;5011374;28;20038;-26
2022/08/21 06:13:55;;;;;;;2.22;1.42;;;;;;;27.24;34.03;96769.88;5008403;28;20037;-26
2022/08/21 06:16:22;;;;;;;2.33;1.30;;;;;;;27.25;34.15;96766.28;5006277;28;20033;-25
2022/08/21 06:18:47;;;;;;;3.08;1.63;;;;;;;27.26;34.31;96765.34;5011345;28;20033;-24
2022/08/21 06:21:13;;;;;;;2.63;1.33;;;;;;;27.27;34.29;96767.06;5013360;28;20032;-25
2022/08/21 06:23:38;;;;;;;2.15;1.40;;;;;;;27.26;34.26;96757.47;5006414;28;20538;-25
2022/08/21 06:26:04;;;;;;;2.40;1.50;;;;;;;27.27;34.52;96759.19;5008620;28;20489;-24
2022/08/21 06:28:30;;;;;;;2.53;1.45;;;;;;;27.27;34.26;96754.75;5010930;28;20030;-23
2022/08/21 06:30:55;;;;;;;10.27;1.80;;;;;;;27.28;34.21;96758.22;5007547;28;20874;-23
2022/08/21 06:33:21;;;;;;;2.97;1.95;;;;;;;27.29;34.27;96754.66;5002846;28;20029;-24
2022/08/21 06:35:46;;;;;;;5.93;2.30;;;;;;;27.29;34.01;96767.81;5006259;28;20022;-25
2022/08/21 06:38:11;;;;;;;5.05;2.45;;;;;;;27.28;33.62;96766.13;5010737;28;20408;-26
2022/08/21 06:40:38;;;;;;;9.27;2.40;;;;;;;27.26;33.56;96757.47;5006263;28;20037;-25
2022/08/21 06:43:11;;;;;;;6.65;2.50;;;;;;;27.25;33.68;96755.78;5003396;28;20086;-24
2022/08/21 06:45:37;;;;;;;8.40;2.72;;;;;;;27.24;33.73;96751.47;5006225;28;20032;-24
2022/08/21 06:48:03;;;;;;;9.05;3.28;;;;;;;27.22;33.77;96745.41;5005519;28;20029;-25
2022/08/21 06:50:28;;;;;;;7.78;3.03;;;;;;;27.20;33.61;96742.06;5005441;28;20029;-26
2022/08/21 06:53:05;;;;;;;8.50;3.10;;;;;;;27.20;33.46;96753.44;5004375;28;20178;-26
2022/08/21 06:55:31;;;;;;;7.43;3.33;;;;;;;27.19;33.77;96740.38;5008181;28;22004;-27
2022/08/21 06:57:56;;;;;;;7.05;2.75;;;;;;;27.18;33.64;96752.66;5004565;28;20033;-24
2022/08/21 07:00:22;;;;;;;6.47;2.97;;;;;;;27.18;33.91;96747.41;5005444;28;20036;-25
2022/08/21 07:02:47;;;;;;;5.22;2.70;;;;;;;27.19;33.86;96756.16;5007434;28;20104;-25
2022/08/21 07:05:13;;;;;;;6.88;2.85;;;;;;;27.19;33.97;96750.88;5002717;28;20405;-27
2022/08/21 07:07:38;;;;;;;10.40;3.00;;;;;;;27.19;33.98;96737.75;5006351;28;20030;-25
2022/08/21 07:10:04;;;;;;;6.38;2.70;;;;;;;27.19;33.78;96735.94;5004446;28;20025;-25
2022/08/21 07:12:30;;;;;;;7.05;2.95;;;;;;;27.18;34.11;96738.66;5009159;28;20123;-25
2022/08/21 07:14:55;;;;;;;4.90;2.40;;;;;;;27.19;34.22;96741.19;5002701;28;20021;-24
2022/08/21 07:17:20;;;;;;;9.35;3.10;;;;;;;27.21;33.99;96743.75;5005776;28;20569;-25
2022/08/21 07:19:46;;;;;;;8.52;3.05;;;;;;;27.20;34.01;96740.28;5005028;28;20033;-25
2022/08/21 07:22:12;;;;;;;7.15;3.17;;;;;;;27.19;33.44;96741.19;5008767;28;20029;-24
2022/08/21 07:24:37;;;;;;;7.22;2.90;;;;;;;27.21;33.71;96738.47;5003705;28;20033;-26
2022/08/21 07:27:03;;;;;;;6.15;2.92;;;;;;;27.22;33.79;96740.16;5005885;28;20034;-25
2022/08/21 07:29:28;;;;;;;9.50;2.70;;;;;;;27.22;33.68;96743.66;5004560;28;20060;-25
2022/08/21 07:31:53;;;;;;;5.03;2.75;;;;;;;27.22;33.70;96741.03;5003322;28;20041;-28
2022/08/21 07:34:19;;;;;;;5.13;2.92;;;;;;;27.23;33.80;96732.19;5004532;28;20048;-24
2022/08/21 07:36:45;;;;;;;5.07;2.40;;;;;;;27.24;33.67;96736.50;5005878;28;20040;-24
2022/08/21 07:39:11;;;;;;;6.28;2.97;;;;;;;27.24;33.67;96731.22;5005630;28;20063;-27
2022/08/21 07:41:37;;;;;;;7.35;3.00;;;;;;;27.25;33.93;96734.72;5004357;28;20033;-27
2022/08/21 07:44:02;;;;;;;5.40;2.67;;;;;;;27.25;34.02;96734.72;5004415;28;20087;-28
2022/08/21 07:46:28;;;;;;;5.63;2.70;;;;;;;27.26;34.00;96733.78;5002053;28;20030;-27
2022/08/21 07:48:53;;;;;;;5.38;2.70;;;;;;;27.27;34.18;96730.22;5002551;28;20025;-27
2022/08/21 07:51:20;;;;;;;5.80;2.75;;;;;;;27.26;34.51;96726.75;5005506;28;20029;-26
2022/08/21 07:53:50;;;;;;;8.05;3.08;;;;;;;27.28;34.28;96729.28;5010117;28;20032;-26
2022/08/21 07:56:15;;;;;;;6.85;3.20;;;;;;;27.30;33.98;96724.75;5003357;28;20079;-27
2022/08/21 07:58:41;;;;;;;5.43;2.88;;;;;;;27.30;33.87;96724.75;5004561;28;20104;-28
2022/08/21 08:01:06;;;;;;;6.43;2.92;;;;;;;27.31;34.13;96723.00;5003675;28;20041;-27
2022/08/21 08:03:31;;;;;;;6.82;2.80;;;;;;;27.32;34.10;96728.16;5002348;28;20032;-27
2022/08/21 08:05:57;;;;;;;7.97;3.17;;;;;;;27.31;34.31;96721.19;5005954;28;20034;-27
2022/08/21 08:08:23;;;;;;;8.15;3.25;;;;;;;27.33;34.28;96721.97;5005992;28;20034;-27
2022/08/21 08:10:49;;;;;;;5.28;2.88;;;;;;;27.33;34.09;96721.97;5004113;28;20408;-27
2022/08/21 08:13:15;;;;;;;6.30;2.95;;;;;;;27.34;34.19;96723.66;5003513;28;20037;-27
2022/08/21 08:15:40;;;;;;;5.43;2.72;;;;;;;27.35;34.33;96724.50;5005431;28;20029;-27
2022/08/21 08:18:05;;;;;;;5.70;2.75;;;;;;;27.35;34.17;96714.81;5003874;28;20405;-26
2022/08/21 08:20:31;;;;;;;4.57;2.55;;;;;;;27.36;34.33;96715.66;5003509;28;20037;-28
2022/08/21 08:22:57;;;;;;;4.80;2.70;;;;;;;27.37;34.13;96714.72;5007914;28;20018;-27
2022/08/21 08:25:23;;;;;;;5.93;2.67;;;;;;;27.37;34.19;96712.09;5008621;28;20037;-26
2022/08/21 08:27:48;;;;;;;4.38;2.70;;;;;;;27.37;34.13;96718.19;5008474;28;20037;-27
2022/08/21 08:30:15;;;;;;;4.45;2.58;;;;;;;27.38;34.19;96708.50;5007261;28;20366;-26
2022/08/21 08:32:40;;;;;;;4.78;2.67;;;;;;;27.39;34.07;96710.22;5004965;28;20561;-27
2022/08/21 08:35:06;;;;;;;5.15;2.58;;;;;;;27.39;34.07;96699.69;4997190;28;20034;-26
2022/08/21 08:37:32;;;;;;;11.20;3.40;;;;;;;27.38;32.51;96698.84;5005356;28;20558;-24
2022/08/21 08:39:57;;;;;;;7.25;3.75;;;;;;;27.33;30.90;96703.53;5002667;28;20022;-26
2022/08/21 08:42:30;;;;;;;6.85;3.55;;;;;;;27.26;31.18;96699.56;5006745;28;20119;-27
2022/08/21 08:45:07;;;;;;;8.98;3.55;;;;;;;27.23;31.42;96689.25;5001229;28;20034;-26
2022/08/21 08:47:35;;;;;;;9.45;3.63;;;;;;;27.21;31.37;96688.50;5001644;28;20030;-26
2022/08/21 08:50:07;;;;;;;10.13;4.00;;;;;;;27.21;31.16;96691.13;5001427;28;20029;-26
2022/08/21 08:52:35;;;;;;;7.53;3.90;;;;;;;27.20;30.99;96687.66;5002357;28;20067;-28
2022/08/21 08:55:03;;;;;;;12.20;4.50;;;;;;;27.17;30.67;96684.34;5002991;28;20424;-28
2022/08/21 08:57:30;;;;;;;11.23;4.72;;;;;;;27.13;30.44;96676.66;5005444;28;20642;-26
2022/08/21 08:59:57;;;;;;;13.45;4.57;;;;;;;27.09;29.68;96684.81;4986581;28;20040;-25
2022/08/21 09:02:23;;;;;;;11.77;4.63;;;;;;;27.04;30.12;96679.81;5018040;28;20030;-25
2022/08/21 09:04:48;;;;;;;11.43;4.45;;;;;;;27.00;30.17;96678.31;5001862;28;20032;-25
2022/08/21 09:07:29;;;;;;;11.82;4.72;;;;;;;26.95;30.10;96672.50;5006474;28;20880;-26
2022/08/21 09:10:23;;;;;;;9.68;4.13;;;;;;;26.93;30.39;96680.44;5000922;28;20037;-27
2022/08/21 09:12:51;;;;;;;10.20;3.85;;;;;;;26.92;30.70;96680.56;5003427;28;20084;-25
2022/08/21 09:15:42;;;;;;;11.30;4.25;;;;;;;26.92;30.64;96673.50;5003459;28;20036;-27
2022/08/21 09:18:10;;;;;;;12.80;4.22;;;;;;;26.93;30.31;96676.97;5006697;28;20083;-28
2022/08/21 09:21:23;;;;;;;9.85;3.90;;;;;;;26.94;30.80;96670.78;5000031;28;20128;-28
2022/08/21 09:24:14;;;;;;;8.07;3.75;;;;;;;26.95;31.03;96664.59;5012945;28;20034;-27
2022/08/21 09:27:04;;;;;;;11.77;3.93;;;;;;;26.98;31.39;96667.06;5002405;28;20045;-26
2022/08/21 09:29:30;;;;;;;13.88;3.70;;;;;;;26.99;31.54;96666.13;5007231;28;20117;-26
2022/08/21 09:31:56;;;;;;;8.18;3.42;;;;;;;27.02;31.74;96665.94;5003725;28;20160;-27
2022/08/21 09:34:28;;;;;;;12.00;3.83;;;;;;;27.05;31.80;96664.91;5009477;28;20033;-26
2022/08/21 09:36:54;;;;;;;11.48;3.92;;;;;;;27.07;31.85;96658.63;5005804;28;20036;-25
2022/08/21 09:39:31;;;;;;;11.43;3.83;;;;;;;27.09;31.88;96662.00;5009237;28;20412;-25
2022/08/21 09:41:57;;;;;;;9.98;3.35;;;;;;;27.11;32.04;96660.13;5007922;28;20021;-24
2022/08/21 09:44:28;;;;;;;9.18;4.00;;;;;;;27.14;32.02;96664.34;5007188;28;20100;-26
2022/08/21 09:46:54;;;;;;;7.63;4.00;;;;;;;27.17;32.24;96663.31;5007210;28;20523;-26
2022/08/21 09:49:34;;;;;;;9.18;3.75;;;;;;;27.18;32.33;96662.38;5006239;28;20033;-26
2022/08/21 09:51:59;;;;;;;8.85;4.20;;;;;;;27.20;32.21;96660.50;5007936;28;20068;-26
2022/08/21 09:54:34;;;;;;;11.63;4.30;;;;;;;27.21;32.32;96659.56;5009047;28;20026;-25
2022/08/21 09:57:40;;;;;;;7.82;3.78;;;;;;;27.23;32.48;96655.06;4992844;28;20513;-25
2022/08/21 10:00:22;;;;;;;10.32;4.30;;;;;;;27.25;32.59;96651.41;5010787;28;20103;-26
2022/08/21 10:02:48;;;;;;;8.38;4.30;;;;;;;27.26;32.42;96645.19;5020884;28;20038;-25
2022/08/21 10:05:22;;;;;;;8.05;3.80;;;;;;;27.27;32.47;96654.75;5006788;28;20571;-25
2022/08/21 10:07:48;;;;;;;7.00;3.53;;;;;;;27.29;32.68;96649.41;5004343;28;20033;-25
2022/08/21 10:10:28;;;;;;;8.23;4.13;;;;;;;27.30;32.67;96643.19;5006602;28;20488;-26
2022/08/21 10:13:24;;;;;;;7.65;4.20;;;;;;;27.31;32.79;96639.63;5007636;28;20554;-25
2022/08/21 10:15:51;;;;;;;10.52;3.90;;;;;;;27.34;32.69;96641.25;5011035;28;20037;-26
2022/08/21 10:19:18;;;;;;;10.98;3.92;;;;;;;-148.56;100.00;61375.16;5008809;28;20029;-25
2022/08/21 10:23:14;;;;;;;7.40;3.60;;;;;;;-148.56;100.00;61375.16;5010352;28;20516;-24
2022/08/21 10:27:00;;;;;;;6.95;3.50;;;;;;;-148.56;100.00;61375.16;5009688;28;20040;-25
2022/08/21 10:30:35;;;;;;;10.38;3.70;;;;;;;-148.56;100.00;61375.16;5010474;28;20052;-25
2022/08/21 10:34:37;;;;;;;8.38;3.58;;;;;;;-148.56;100.00;61375.16;5010573;28;20101;-25
2022/08/21 10:38:29;;;;;;;6.65;3.60;;;;;;;-148.56;100.00;61375.16;5001588;28;20045;-26
2022/08/21 10:42:20;;;;;;;6.15;3.67;;;;;;;-148.56;100.00;61375.16;5012203;28;20565;-26
2022/08/21 10:46:02;;;;;;;5.65;3.05;;;;;;;-148.56;100.00;61375.16;5011298;28;20037;-24
2022/08/21 10:49:33;;;;;;;6.22;3.40;;;;;;;-148.56;100.00;61375.16;5010669;28;20029;-26
2022/08/21 10:53:38;;;;;;;6.72;2.97;;;;;;;-148.56;100.00;61375.16;5009814;28;20061;-26
2022/08/21 10:57:16;;;;;;;5.95;3.13;;;;;;;-148.56;100.00;61375.16;5001807;28;20042;-26
2022/08/21 11:00:51;;;;;;;5.38;3.25;;;;;;;-148.56;100.00;61375.16;5011188;28;20566;-26
2022/08/21 11:04:25;;;;;;;5.75;3.30;;;;;;;-148.56;100.00;61375.16;5009976;28;20068;-26
2022/08/21 11:07:53;;;;;;;5.55;3.30;;;;;;;-148.56;100.00;61375.16;5011941;28;20080;-25
2022/08/21 11:11:35;;;;;;;6.28;3.17;;;;;;;-148.56;100.00;61375.16;5011689;28;20025;-26
2022/08/21 11:15:18;;;;;;;4.43;2.70;;;;;;;-148.56;100.00;61375.16;5011749;28;20025;-26
2022/08/21 11:18:50;;;;;;;5.38;3.15;;;;;;;-148.56;100.00;61375.16;5009960;28;20047;-26
2022/08/21 11:22:39;;;;;;;;;;;;;;;-148.56;100.00;61375.16;5008516;28;20036;-26
2022/08/21 11:26:35;;;;;;;5.47;3.00;;;;;;;-148.56;100.00;61375.16;5015958;28;19928;-26
2022/08/21 11:30:11;;;;;;;7.13;3.10;;;;;;;-148.56;100.00;61375.16;5006645;28;20129;-25
2022/08/21 11:33:53;;;;;;;7.22;3.05;;;;;;;-148.56;100.00;61375.16;5011241;28;20130;-26
2022/08/21 11:37:40;;;;;;;4.68;2.60;;;;;;;-148.56;100.00;61375.16;5010164;28;20114;-24
2022/08/21 11:41:17;;;;;;;4.20;2.50;;;;;;;-148.56;100.00;61375.16;5006547;28;20580;-26
2022/08/21 11:44:41;;;;;;;3.50;2.40;;;;;;;-148.56;100.00;61375.16;5006872;28;20108;-25
2022/08/21 11:48:13;;;;;;;5.60;2.63;;;;;;;-148.56;100.00;61375.16;5010423;28;20043;-25
2022/08/21 11:51:39;;;;;;;3.60;2.40;;;;;;;-148.56;100.00;61375.16;5012659;28;20063;-25
2022/08/21 11:55:04;;;;;;;3.97;2.35;;;;;;;-148.56;100.00;61375.16;5008115;28;20401;-26
2022/08/21 11:58:31;;;;;;;3.83;2.58;;;;;;;-148.56;100.00;61375.16;5010594;28;20034;-27
2022/08/21 12:02:20;;;;;;;4.43;2.40;;;;;;;-148.56;100.00;61375.16;5008934;28;20029;-24
2022/08/21 12:05:51;;;;;;;3.60;2.22;;;;;;;-148.56;100.00;61375.16;5009767;28;20029;-25